Time,TemperatureF,DewpointF,PressureIn,WindDirection,WindDirectionDegrees,WindSpeedMPH,WindSpeedGustMPH,Humidity,HourlyPrecipIn,Conditions,Clouds,dailyrainin,SoftwareType,DateUTC
2013-04-10 00:11:00,41.3,34.0,30.25,ESE,110,1.0,-999.0,74,-99.99,,,0.00,weatherlink.com 1.10,2013-04-10 07:11:00,
2013-04-10 00:26:00,41.3,34.0,30.24,SE,136,1.0,-999.0,74,-99.99,,,0.00,weatherlink.com 1.10,2013-04-10 07:26:00,
2013-04-10 00:41:00,42.2,34.0,30.24,ENE,72,3.0,-999.0,72,-99.99,,,0.00,weatherlink.com 1.10,2013-04-10 07:41:00,
2013-04-10 00:56:00,41.8,33.0,30.24,SE,135,7.0,-999.0,72,-99.99,,,0.00,weatherlink.com 1.10,2013-04-10 07:56:00,
2013-04-10 01:11:00,44.0,33.0,30.24,SE,142,10.0,-999.0,66,-99.99,,,0.00,weatherlink.com 1.10,2013-04-10 08:11:00,
2013-04-10 01:26:00,44.3,32.0,30.24,SE,145,9.0,-999.0,63,-99.99,,,0.00,weatherlink.com 1.10,2013-04-10 08:26:00,
2013-04-10 02:11:00,44.3,32.0,30.22,SE,124,11.0,-999.0,62,-99.99,,,0.00,weatherlink.com 1.10,2013-04-10 09:11:00,
2013-04-10 02:41:00,43.7,32.0,30.21,ESE,105,1.0,-999.0,63,-99.99,,,0.00,weatherlink.com 1.10,2013-04-10 09:41:00,
2013-04-10 02:56:00,44.0,33.0,30.21,SE,145,2.0,-999.0,65,-99.99,,,0.00,weatherlink.com 1.10,2013-04-10 09:56:00,
2013-04-10 03:11:00,44.3,32.0,30.21,SE,124,8.0,-999.0,63,-99.99,,,0.00,weatherlink.com 1.10,2013-04-10 10:11:00,
2013-04-10 03:26:00,44.8,32.0,30.21,SSE,150,6.0,-999.0,62,-99.99,,,0.00,weatherlink.com 1.10,2013-04-10 10:26:00,
2013-04-10 03:41:00,45.2,34.0,30.21,SE,132,5.0,-999.0,64,-99.99,,,0.00,weatherlink.com 1.10,2013-04-10 10:41:00,
2013-04-10 03:56:00,45.4,34.0,30.21,SE,146,4.0,-999.0,64,-99.99,,,0.00,weatherlink.com 1.10,2013-04-10 10:56:00,
2013-04-10 04:11:00,45.6,34.0,30.21,South,186,2.0,-999.0,63,-99.99,,,0.00,weatherlink.com 1.10,2013-04-10 11:11:00,
2013-04-10 04:26:00,45.2,33.0,30.21,SE,142,6.0,-999.0,63,-99.99,,,0.00,weatherlink.com 1.10,2013-04-10 11:26:00,
2013-04-10 04:41:00,45.4,34.0,30.20,SSE,159,5.0,-999.0,64,-99.99,,,0.00,weatherlink.com 1.10,2013-04-10 11:41:00,
2013-04-10 04:56:00,45.1,34.0,30.20,SE,138,5.0,-999.0,65,-99.99,,,0.00,weatherlink.com 1.10,2013-04-10 11:56:00,
2013-04-10 05:11:00,45.1,33.0,30.20,SSE,152,4.0,-999.0,63,-99.99,,,0.00,weatherlink.com 1.10,2013-04-10 12:11:00,
2013-04-10 05:26:00,44.7,32.0,30.20,SSE,165,3.0,-999.0,61,-99.99,,,0.00,weatherlink.com 1.10,2013-04-10 12:26:00,
2013-04-10 05:41:00,44.8,33.0,30.20,SSE,153,4.0,-999.0,64,-99.99,,,0.00,weatherlink.com 1.10,2013-04-10 12:41:00,
2013-04-10 05:56:00,44.3,33.0,30.20,SSE,156,3.0,-999.0,65,-99.99,,,0.00,weatherlink.com 1.10,2013-04-10 12:56:00,
2013-04-10 06:11:00,44.0,32.0,30.20,SSE,150,5.0,-999.0,64,-99.99,,,0.00,weatherlink.com 1.10,2013-04-10 13:11:00,
2013-04-10 06:41:00,43.6,33.0,30.19,SE,134,4.0,-999.0,66,-99.99,,,0.00,weatherlink.com 1.10,2013-04-10 13:41:00,
2013-04-10 06:56:00,43.2,36.0,30.19,South,178,5.0,-999.0,76,-99.99,,,0.00,weatherlink.com 1.10,2013-04-10 13:56:00,
2013-04-10 07:11:00,44.0,37.0,30.19,SE,143,3.0,-999.0,75,-99.99,,,0.00,weatherlink.com 1.10,2013-04-10 14:11:00,
2013-04-10 07:41:00,45.7,36.0,30.19,SE,143,4.0,-999.0,70,-99.99,,,0.00,weatherlink.com 1.10,2013-04-10 14:41:00,
2013-04-10 07:56:00,46.6,36.0,30.19,SSE,152,5.0,-999.0,68,-99.99,,,0.00,weatherlink.com 1.10,2013-04-10 14:56:00,
2013-04-10 08:11:00,47.0,37.0,30.18,SSE,155,4.0,-999.0,68,-99.99,,,0.00,weatherlink.com 1.10,2013-04-10 15:11:00,
2013-04-10 08:26:00,47.6,38.0,30.17,SSE,152,7.0,-999.0,69,-99.99,,,0.00,weatherlink.com 1.10,2013-04-10 15:26:00,
2013-04-10 08:56:00,48.0,37.0,30.17,SSE,149,10.0,-999.0,67,-99.99,,,0.00,weatherlink.com 1.10,2013-04-10 15:56:00,
2013-04-10 09:11:00,48.2,38.0,30.16,SE,143,5.0,-999.0,69,-99.99,,,0.00,weatherlink.com 1.10,2013-04-10 16:11:00,
2013-04-10 09:26:00,48.3,39.0,30.16,SE,136,12.0,-999.0,69,-99.99,,,0.00,weatherlink.com 1.10,2013-04-10 16:26:00,
2013-04-10 09:41:00,48.7,39.0,30.14,SE,133,10.0,-999.0,69,-99.99,,,0.00,weatherlink.com 1.10,2013-04-10 16:41:00,
2013-04-10 09:56:00,49.3,39.0,30.15,SSE,150,7.0,-999.0,68,-99.99,,,0.00,weatherlink.com 1.10,2013-04-10 16:56:00,
2013-04-10 10:11:00,52.1,41.0,30.14,SSE,156,10.0,-999.0,66,-99.99,,,0.00,weatherlink.com 1.10,2013-04-10 17:11:00,
2013-04-10 10:26:00,53.7,42.0,30.13,SSW,208,12.0,-999.0,64,-99.99,,,0.00,weatherlink.com 1.10,2013-04-10 17:26:00,
2013-04-10 10:41:00,54.7,43.0,30.14,WSW,246,8.0,-999.0,64,-99.99,,,0.00,weatherlink.com 1.10,2013-04-10 17:41:00,
2013-04-10 10:56:00,56.3,42.0,30.12,SW,233,10.0,-999.0,59,-99.99,,,0.00,weatherlink.com 1.10,2013-04-10 17:56:00,
2013-04-10 11:11:00,57.4,42.0,30.12,WSW,239,22.0,-999.0,56,-99.99,,,0.00,weatherlink.com 1.10,2013-04-10 18:11:00,
2013-04-10 11:26:00,56.2,41.0,30.12,SW,236,15.0,-999.0,58,-99.99,,,0.00,weatherlink.com 1.10,2013-04-10 18:26:00,
2013-04-10 11:41:00,55.7,41.0,30.12,WSW,243,12.0,-999.0,59,-99.99,,,0.00,weatherlink.com 1.10,2013-04-10 18:41:00,
2013-04-10 11:56:00,55.4,41.0,30.12,WSW,242,14.0,-999.0,59,-99.99,,,0.00,weatherlink.com 1.10,2013-04-10 18:56:00,
2013-04-10 12:11:00,52.9,41.0,30.14,WNW,283,20.0,-999.0,65,-99.99,,,0.00,weatherlink.com 1.10,2013-04-10 19:11:00,
2013-04-10 12:26:00,50.7,42.0,30.14,WSW,242,19.0,-999.0,73,-99.99,,,0.00,weatherlink.com 1.10,2013-04-10 19:26:00,
2013-04-10 12:41:00,50.6,41.0,30.14,West,271,20.0,-999.0,71,-99.99,,,0.00,weatherlink.com 1.10,2013-04-10 19:41:00,
2013-04-10 12:56:00,51.1,41.0,30.13,West,268,15.0,-999.0,69,-99.99,,,0.00,weatherlink.com 1.10,2013-04-10 19:56:00,
2013-04-10 13:11:00,51.7,41.0,30.12,West,275,18.0,-999.0,66,-99.99,,,0.00,weatherlink.com 1.10,2013-04-10 20:11:00,
2013-04-10 13:26:00,51.8,40.0,30.11,West,263,19.0,-999.0,65,-99.99,,,0.00,weatherlink.com 1.10,2013-04-10 20:26:00,
2013-04-10 13:41:00,51.9,40.0,30.12,West,269,16.0,-999.0,65,-99.99,,,0.00,weatherlink.com 1.10,2013-04-10 20:41:00,
2013-04-10 13:56:00,51.0,40.0,30.14,WNW,303,11.0,-999.0,65,-99.99,,,0.00,weatherlink.com 1.10,2013-04-10 20:56:00,
2013-04-10 14:11:00,50.7,39.0,30.13,West,278,14.0,-999.0,65,-99.99,,,0.00,weatherlink.com 1.10,2013-04-10 21:11:00,
2013-04-10 14:26:00,51.3,39.0,30.13,WSW,255,15.0,-999.0,63,-99.99,,,0.00,weatherlink.com 1.10,2013-04-10 21:26:00,
2013-04-10 14:41:00,52.9,37.0,30.14,SW,235,4.0,-999.0,56,-99.99,,,0.00,weatherlink.com 1.10,2013-04-10 21:41:00,
2013-04-10 14:56:00,54.4,32.0,30.13,WNW,287,13.0,-999.0,42,-99.99,,,0.00,weatherlink.com 1.10,2013-04-10 21:56:00,
2013-04-10 15:11:00,55.2,33.0,30.12,WNW,285,14.0,-999.0,43,-99.99,,,0.00,weatherlink.com 1.10,2013-04-10 22:11:00,
2013-04-10 15:26:00,56.3,34.0,30.12,WNW,296,13.0,-999.0,43,-99.99,,,0.00,weatherlink.com 1.10,2013-04-10 22:26:00,
2013-04-10 15:56:00,56.1,29.0,30.12,WNW,283,15.0,-999.0,35,-99.99,,,0.00,weatherlink.com 1.10,2013-04-10 22:56:00,
2013-04-10 16:11:00,54.7,30.0,30.12,WNW,284,20.0,-999.0,39,-99.99,,,0.00,weatherlink.com 1.10,2013-04-10 23:11:00,
2013-04-10 16:26:00,54.3,31.0,30.12,West,278,21.0,-999.0,41,-99.99,,,0.00,weatherlink.com 1.10,2013-04-10 23:26:00,
2013-04-10 16:41:00,51.9,33.0,30.14,WNW,300,18.0,-999.0,48,-99.99,,,0.00,weatherlink.com 1.10,2013-04-10 23:41:00,
2013-04-10 16:56:00,52.4,33.0,30.14,WNW,283,20.0,-999.0,48,-99.99,,,0.00,weatherlink.com 1.10,2013-04-10 23:56:00,
2013-04-10 17:11:00,51.7,33.0,30.14,West,280,11.0,-999.0,50,-99.99,,,0.00,weatherlink.com 1.10,2013-04-11 00:11:00,
2013-04-10 17:26:00,50.3,32.0,30.15,West,276,17.0,-999.0,50,-99.99,,,0.00,weatherlink.com 1.10,2013-04-11 00:26:00,
2013-04-10 17:41:00,49.7,33.0,30.15,West,276,16.0,-999.0,53,-99.99,,,0.00,weatherlink.com 1.10,2013-04-11 00:41:00,
2013-04-10 17:56:00,49.1,33.0,30.15,WNW,294,17.0,-999.0,55,-99.99,,,0.00,weatherlink.com 1.10,2013-04-11 00:56:00,
2013-04-10 18:11:00,48.8,34.0,30.16,WNW,291,10.0,-999.0,56,-99.99,,,0.00,weatherlink.com 1.10,2013-04-11 01:11:00,
2013-04-10 18:26:00,48.3,33.0,30.16,WNW,298,11.0,-999.0,56,-99.99,,,0.00,weatherlink.com 1.10,2013-04-11 01:26:00,
2013-04-10 18:41:00,48.0,33.0,30.16,WNW,303,9.0,-999.0,56,-99.99,,,0.00,weatherlink.com 1.10,2013-04-11 01:41:00,
2013-04-10 18:56:00,47.0,33.0,30.17,NNW,332,9.0,-999.0,59,-99.99,,,0.00,weatherlink.com 1.10,2013-04-11 01:56:00,
2013-04-10 19:11:00,46.0,30.0,30.16,NNW,333,14.0,-999.0,55,-99.99,,,0.00,weatherlink.com 1.10,2013-04-11 02:11:00,
2013-04-10 19:26:00,45.5,29.0,30.18,NNW,330,13.0,-999.0,53,-99.99,,,0.00,weatherlink.com 1.10,2013-04-11 02:26:00,
2013-04-10 19:41:00,44.6,29.0,30.18,NW,314,14.0,-999.0,55,-99.99,,,0.00,weatherlink.com 1.10,2013-04-11 02:41:00,
2013-04-10 19:56:00,44.1,29.0,30.18,NW,316,9.0,-999.0,55,-99.99,,,0.00,weatherlink.com 1.10,2013-04-11 02:56:00,
2013-04-10 20:41:00,40.8,29.0,30.19,NNW,327,3.0,-999.0,62,-99.99,,,0.00,weatherlink.com 1.10,2013-04-11 03:41:00,
2013-04-10 20:56:00,40.1,28.0,30.18,NW,322,7.0,-999.0,62,-99.99,,,0.00,weatherlink.com 1.10,2013-04-11 03:56:00,
2013-04-10 21:11:00,39.5,27.0,30.18,WNW,301,4.0,-999.0,61,-99.99,,,0.00,weatherlink.com 1.10,2013-04-11 04:11:00,
2013-04-10 21:41:00,37.5,27.0,30.20,NNE,27,7.0,-999.0,65,-99.99,,,0.00,weatherlink.com 1.10,2013-04-11 04:41:00,
2013-04-10 21:56:00,37.4,26.0,30.20,SW,224,2.0,-999.0,64,-99.99,,,0.00,weatherlink.com 1.10,2013-04-11 04:56:00,
2013-04-10 22:11:00,36.3,26.0,30.19,West,269,3.0,-999.0,67,-99.99,,,0.00,weatherlink.com 1.10,2013-04-11 05:11:00,
2013-04-10 22:26:00,36.5,26.0,30.19,NE,46,0.0,-999.0,67,-99.99,,,0.00,weatherlink.com 1.10,2013-04-11 05:26:00,
2013-04-10 22:41:00,34.7,25.0,30.20,ESE,110,4.0,-999.0,69,-99.99,,,0.00,weatherlink.com 1.10,2013-04-11 05:41:00,
2013-04-10 22:56:00,32.3,26.0,30.18,SSW,207,5.0,-999.0,77,-99.99,,,0.00,weatherlink.com 1.10,2013-04-11 05:56:00,
2013-04-10 23:11:00,33.1,26.0,30.19,East,96,0.0,-999.0,75,-99.99,,,0.00,weatherlink.com 1.10,2013-04-11 06:11:00,
2013-04-10 23:26:00,32.5,27.0,30.19,SE,134,0.0,-999.0,79,-99.99,,,0.00,weatherlink.com 1.10,2013-04-11 06:26:00,
2013-04-10 23:41:00,30.3,26.0,30.19,SE,135,2.0,-999.0,83,-99.99,,,0.00,weatherlink.com 1.10,2013-04-11 06:41:00,
2013-04-10 23:56:00,30.1,25.0,30.20,ENE,62,4.0,-999.0,81,-99.99,,,0.00,weatherlink.com 1.10,2013-04-11 06:56:00,